Terminal Aerodrome Forecast
Issued by NWS Paducah, KY

Home | Current Version | Previous Version | Text Only | Print | Product List | Glossary Off
Versions: 1 2 3 4 5 6 7 8 9 10 11 12 13 14 15 16 17 18 19 20 21 22 23 24 25 26 27

038
FTUS43 KPAH 170429 AAA
TAFEVV
TAF AMD
KEVV 170429Z 1704/1724 17009KT P6SM -SHRA SCT015 BKN045
     FM170700 21010KT P6SM OVC015
     FM171200 25009KT P6SM BKN015=

USA.gov is the U.S. government's official web portal to all federal, state and local government web resources and services.